sensor_id;sensor_type;location;lat;lon;timestamp;P1;durP1;ratioP1;P2;durP2;ratioP2
20138;SDS011;10230;51.502;10.800;2022-12-16T00:00:15;14.23;;;7.07;;
20138;SDS011;10230;51.502;10.800;2022-12-16T00:02:41;13.23;;;7.37;;
20138;SDS011;10230;51.502;10.800;2022-12-16T00:05:07;11.90;;;7.23;;
20138;SDS011;10230;51.502;10.800;2022-12-16T00:07:33;13.37;;;7.20;;
20138;SDS011;10230;51.502;10.800;2022-12-16T00:09:59;14.57;;;6.70;;
20138;SDS011;10230;51.502;10.800;2022-12-16T00:12:25;15.07;;;8.43;;
20138;SDS011;10230;51.502;10.800;2022-12-16T00:14:51;13.53;;;7.60;;
20138;SDS011;10230;51.502;10.800;2022-12-16T00:17:16;14.70;;;7.83;;
20138;SDS011;10230;51.502;10.800;2022-12-16T00:19:42;13.13;;;6.93;;
20138;SDS011;10230;51.502;10.800;2022-12-16T00:22:08;17.30;;;8.33;;
20138;SDS011;10230;51.502;10.800;2022-12-16T00:24:34;16.57;;;9.23;;
20138;SDS011;10230;51.502;10.800;2022-12-16T00:26:59;12.77;;;7.70;;
20138;SDS011;10230;51.502;10.800;2022-12-16T00:29:25;12.73;;;8.03;;
20138;SDS011;10230;51.502;10.800;2022-12-16T00:31:50;13.77;;;7.60;;
20138;SDS011;10230;51.502;10.800;2022-12-16T00:34:16;11.47;;;6.07;;
20138;SDS011;10230;51.502;10.800;2022-12-16T00:36:42;12.37;;;6.87;;
20138;SDS011;10230;51.502;10.800;2022-12-16T00:39:08;10.63;;;5.50;;
20138;SDS011;10230;51.502;10.800;2022-12-16T00:41:35;14.23;;;6.07;;
20138;SDS011;10230;51.502;10.800;2022-12-16T00:44:01;10.90;;;5.87;;
20138;SDS011;10230;51.502;10.800;2022-12-16T00:46:27;12.40;;;7.03;;
20138;SDS011;10230;51.502;10.800;2022-12-16T00:48:53;8.50;;;5.47;;
20138;SDS011;10230;51.502;10.800;2022-12-16T00:51:19;12.90;;;7.10;;
20138;SDS011;10230;51.502;10.800;2022-12-16T00:53:45;9.43;;;5.27;;
20138;SDS011;10230;51.502;10.800;2022-12-16T00:56:11;10.67;;;5.73;;
20138;SDS011;10230;51.502;10.800;2022-12-16T00:58:44;7.90;;;4.87;;
20138;SDS011;10230;51.502;10.800;2022-12-16T01:01:10;7.50;;;4.37;;
20138;SDS011;10230;51.502;10.800;2022-12-16T01:03:36;7.33;;;4.73;;
20138;SDS011;10230;51.502;10.800;2022-12-16T01:06:15;7.57;;;4.47;;
20138;SDS011;10230;51.502;10.800;2022-12-16T01:08:42;8.93;;;5.17;;
20138;SDS011;10230;51.502;10.800;2022-12-16T01:11:14;8.87;;;3.83;;
20138;SDS011;10230;51.502;10.800;2022-12-16T01:13:41;9.80;;;5.23;;
20138;SDS011;10230;51.502;10.800;2022-12-16T01:16:07;9.10;;;4.67;;
20138;SDS011;10230;51.502;10.800;2022-12-16T01:18:32;8.90;;;5.23;;
20138;SDS011;10230;51.502;10.800;2022-12-16T01:21:05;10.07;;;6.20;;
20138;SDS011;10230;51.502;10.800;2022-12-16T01:23:32;10.53;;;5.30;;
20138;SDS011;10230;51.502;10.800;2022-12-16T01:25:59;10.57;;;5.13;;
20138;SDS011;10230;51.502;10.800;2022-12-16T01:28:29;7.77;;;4.30;;
20138;SDS011;10230;51.502;10.800;2022-12-16T01:30:58;7.27;;;4.33;;
20138;SDS011;10230;51.502;10.800;2022-12-16T01:33:28;9.70;;;4.53;;
20138;SDS011;10230;51.502;10.800;2022-12-16T01:35:58;9.33;;;4.57;;
20138;SDS011;10230;51.502;10.800;2022-12-16T01:38:30;8.30;;;4.10;;
20138;SDS011;10230;51.502;10.800;2022-12-16T01:40:56;6.17;;;3.70;;
20138;SDS011;10230;51.502;10.800;2022-12-16T01:43:26;10.33;;;4.57;;
20138;SDS011;10230;51.502;10.800;2022-12-16T01:45:55;9.40;;;5.20;;
20138;SDS011;10230;51.502;10.800;2022-12-16T01:51:29;11.73;;;5.10;;
20138;SDS011;10230;51.502;10.800;2022-12-16T01:54:03;11.53;;;5.53;;
20138;SDS011;10230;51.502;10.800;2022-12-16T01:57:47;11.33;;;6.03;;
20138;SDS011;10230;51.502;10.800;2022-12-16T01:59:59;10.10;;;5.07;;
20138;SDS011;10230;51.502;10.800;2022-12-16T02:02:26;10.53;;;5.83;;
20138;SDS011;10230;51.502;10.800;2022-12-16T02:04:52;11.00;;;6.43;;
20138;SDS011;10230;51.502;10.800;2022-12-16T02:07:37;12.10;;;7.13;;
20138;SDS011;10230;51.502;10.800;2022-12-16T02:10:02;14.60;;;5.40;;
20138;SDS011;10230;51.502;10.800;2022-12-16T02:12:32;10.97;;;6.40;;
20138;SDS011;10230;51.502;10.800;2022-12-16T02:26:43;9.03;;;4.97;;
20138;SDS011;10230;51.502;10.800;2022-12-16T02:42:50;9.97;;;5.00;;
20138;SDS011;10230;51.502;10.800;2022-12-16T02:45:23;8.63;;;4.40;;
20138;SDS011;10230;51.502;10.800;2022-12-16T02:47:52;9.50;;;4.30;;
20138;SDS011;10230;51.502;10.800;2022-12-16T02:50:28;9.87;;;4.30;;
20138;SDS011;10230;51.502;10.800;2022-12-16T02:53:03;7.40;;;3.90;;
20138;SDS011;10230;51.502;10.800;2022-12-16T03:03:39;8.10;;;4.40;;
20138;SDS011;10230;51.502;10.800;2022-12-16T03:06:13;9.43;;;4.63;;
20138;SDS011;10230;51.502;10.800;2022-12-16T03:08:42;11.23;;;5.67;;
20138;SDS011;10230;51.502;10.800;2022-12-16T03:11:12;8.30;;;5.00;;
20138;SDS011;10230;51.502;10.800;2022-12-16T03:13:40;9.13;;;4.43;;
20138;SDS011;10230;51.502;10.800;2022-12-16T03:16:10;9.57;;;3.93;;
20138;SDS011;10230;51.502;10.800;2022-12-16T03:18:41;12.07;;;5.30;;
20138;SDS011;10230;51.502;10.800;2022-12-16T03:21:09;8.80;;;5.20;;
20138;SDS011;10230;51.502;10.800;2022-12-16T03:23:49;11.23;;;5.27;;
20138;SDS011;10230;51.502;10.800;2022-12-16T03:26:19;8.57;;;4.80;;
20138;SDS011;10230;51.502;10.800;2022-12-16T03:31:37;7.13;;;4.73;;
20138;SDS011;10230;51.502;10.800;2022-12-16T03:36:50;13.80;;;6.63;;
20138;SDS011;10230;51.502;10.800;2022-12-16T03:39:20;10.60;;;5.93;;
20138;SDS011;10230;51.502;10.800;2022-12-16T03:41:50;9.00;;;4.87;;
20138;SDS011;10230;51.502;10.800;2022-12-16T03:44:18;13.23;;;6.00;;
20138;SDS011;10230;51.502;10.800;2022-12-16T03:46:46;12.60;;;5.80;;
20138;SDS011;10230;51.502;10.800;2022-12-16T03:49:12;11.57;;;6.80;;
20138;SDS011;10230;51.502;10.800;2022-12-16T03:51:38;14.50;;;7.13;;
20138;SDS011;10230;51.502;10.800;2022-12-16T03:54:03;9.90;;;6.67;;
20138;SDS011;10230;51.502;10.800;2022-12-16T03:56:29;14.50;;;7.10;;
20138;SDS011;10230;51.502;10.800;2022-12-16T03:58:55;15.70;;;6.10;;
20138;SDS011;10230;51.502;10.800;2022-12-16T04:01:20;11.77;;;5.90;;
20138;SDS011;10230;51.502;10.800;2022-12-16T04:03:47;11.57;;;6.33;;
20138;SDS011;10230;51.502;10.800;2022-12-16T04:06:13;12.83;;;6.47;;
20138;SDS011;10230;51.502;10.800;2022-12-16T04:08:43;13.00;;;6.40;;
20138;SDS011;10230;51.502;10.800;2022-12-16T04:11:09;14.37;;;7.10;;
20138;SDS011;10230;51.502;10.800;2022-12-16T04:13:54;11.53;;;6.03;;
20138;SDS011;10230;51.502;10.800;2022-12-16T04:16:38;10.07;;;6.00;;
20138;SDS011;10230;51.502;10.800;2022-12-16T04:19:26;9.97;;;6.20;;
20138;SDS011;10230;51.502;10.800;2022-12-16T04:22:13;11.03;;;6.47;;
20138;SDS011;10230;51.502;10.800;2022-12-16T04:25:09;13.70;;;7.50;;
20138;SDS011;10230;51.502;10.800;2022-12-16T04:27:46;11.10;;;5.77;;
20138;SDS011;10230;51.502;10.800;2022-12-16T04:30:14;13.27;;;6.40;;
20138;SDS011;10230;51.502;10.800;2022-12-16T04:32:49;11.23;;;6.57;;
20138;SDS011;10230;51.502;10.800;2022-12-16T04:35:40;10.73;;;5.87;;
20138;SDS011;10230;51.502;10.800;2022-12-16T04:38:24;11.97;;;6.40;;
20138;SDS011;10230;51.502;10.800;2022-12-16T04:41:08;9.73;;;4.83;;
20138;SDS011;10230;51.502;10.800;2022-12-16T04:43:53;11.33;;;4.77;;
20138;SDS011;10230;51.502;10.800;2022-12-16T04:46:36;10.23;;;5.50;;
20138;SDS011;10230;51.502;10.800;2022-12-16T04:49:21;5.90;;;3.50;;
20138;SDS011;10230;51.502;10.800;2022-12-16T04:52:05;8.10;;;4.30;;
20138;SDS011;10230;51.502;10.800;2022-12-16T04:54:49;7.40;;;4.10;;
20138;SDS011;10230;51.502;10.800;2022-12-16T04:57:34;9.90;;;4.40;;
20138;SDS011;10230;51.502;10.800;2022-12-16T05:00:18;6.53;;;3.97;;
20138;SDS011;10230;51.502;10.800;2022-12-16T05:03:02;8.23;;;3.90;;
20138;SDS011;10230;51.502;10.800;2022-12-16T05:05:47;11.33;;;4.93;;
20138;SDS011;10230;51.502;10.800;2022-12-16T05:08:31;10.87;;;5.13;;
20138;SDS011;10230;51.502;10.800;2022-12-16T05:11:15;4.90;;;3.70;;
20138;SDS011;10230;51.502;10.800;2022-12-16T05:13:59;8.53;;;4.40;;
20138;SDS011;10230;51.502;10.800;2022-12-16T05:16:43;7.63;;;4.60;;
20138;SDS011;10230;51.502;10.800;2022-12-16T05:19:27;11.70;;;5.73;;
20138;SDS011;10230;51.502;10.800;2022-12-16T05:22:25;10.37;;;4.43;;
20138;SDS011;10230;51.502;10.800;2022-12-16T05:25:09;6.77;;;3.60;;
20138;SDS011;10230;51.502;10.800;2022-12-16T05:27:53;6.90;;;3.60;;
20138;SDS011;10230;51.502;10.800;2022-12-16T05:30:37;6.23;;;3.53;;
20138;SDS011;10230;51.502;10.800;2022-12-16T05:33:22;8.93;;;3.83;;
20138;SDS011;10230;51.502;10.800;2022-12-16T05:36:07;10.40;;;4.03;;
20138;SDS011;10230;51.502;10.800;2022-12-16T05:38:51;8.23;;;4.20;;
20138;SDS011;10230;51.502;10.800;2022-12-16T05:41:36;6.03;;;3.50;;
20138;SDS011;10230;51.502;10.800;2022-12-16T05:44:20;6.90;;;4.17;;
20138;SDS011;10230;51.502;10.800;2022-12-16T05:47:05;8.23;;;4.97;;
20138;SDS011;10230;51.502;10.800;2022-12-16T05:49:49;8.77;;;4.47;;
20138;SDS011;10230;51.502;10.800;2022-12-16T05:52:33;12.23;;;4.07;;
20138;SDS011;10230;51.502;10.800;2022-12-16T05:55:17;10.13;;;5.10;;
20138;SDS011;10230;51.502;10.800;2022-12-16T05:58:01;11.13;;;5.23;;
20138;SDS011;10230;51.502;10.800;2022-12-16T06:00:45;9.53;;;6.20;;
20138;SDS011;10230;51.502;10.800;2022-12-16T06:03:29;9.20;;;5.13;;
20138;SDS011;10230;51.502;10.800;2022-12-16T06:06:13;8.93;;;4.60;;
20138;SDS011;10230;51.502;10.800;2022-12-16T06:08:57;7.90;;;3.73;;
20138;SDS011;10230;51.502;10.800;2022-12-16T06:11:41;11.07;;;4.33;;
20138;SDS011;10230;51.502;10.800;2022-12-16T06:14:26;11.63;;;4.67;;
20138;SDS011;10230;51.502;10.800;2022-12-16T06:17:11;7.40;;;4.23;;
20138;SDS011;10230;51.502;10.800;2022-12-16T06:19:55;7.80;;;4.20;;
20138;SDS011;10230;51.502;10.800;2022-12-16T06:22:39;8.67;;;5.03;;
20138;SDS011;10230;51.502;10.800;2022-12-16T06:25:23;8.30;;;4.73;;
20138;SDS011;10230;51.502;10.800;2022-12-16T06:28:07;14.67;;;5.63;;
20138;SDS011;10230;51.502;10.800;2022-12-16T06:30:51;10.10;;;5.30;;
20138;SDS011;10230;51.502;10.800;2022-12-16T06:33:35;8.40;;;4.43;;
20138;SDS011;10230;51.502;10.800;2022-12-16T06:36:19;9.17;;;3.90;;
20138;SDS011;10230;51.502;10.800;2022-12-16T06:39:04;12.30;;;5.63;;
20138;SDS011;10230;51.502;10.800;2022-12-16T06:41:48;8.07;;;4.03;;
20138;SDS011;10230;51.502;10.800;2022-12-16T06:44:32;8.23;;;3.03;;
20138;SDS011;10230;51.502;10.800;2022-12-16T06:47:16;5.83;;;4.07;;
20138;SDS011;10230;51.502;10.800;2022-12-16T06:50:00;8.37;;;6.03;;
20138;SDS011;10230;51.502;10.800;2022-12-16T06:52:44;9.00;;;3.70;;
20138;SDS011;10230;51.502;10.800;2022-12-16T06:55:28;8.03;;;3.67;;
20138;SDS011;10230;51.502;10.800;2022-12-16T06:58:13;6.47;;;2.90;;
20138;SDS011;10230;51.502;10.800;2022-12-16T07:00:56;12.37;;;4.13;;
20138;SDS011;10230;51.502;10.800;2022-12-16T07:03:41;8.67;;;3.90;;
20138;SDS011;10230;51.502;10.800;2022-12-16T07:06:25;7.10;;;3.50;;
20138;SDS011;10230;51.502;10.800;2022-12-16T07:09:09;4.87;;;3.57;;
20138;SDS011;10230;51.502;10.800;2022-12-16T07:11:53;10.77;;;4.03;;
20138;SDS011;10230;51.502;10.800;2022-12-16T07:14:38;12.77;;;3.70;;
20138;SDS011;10230;51.502;10.800;2022-12-16T07:17:22;8.13;;;4.10;;
20138;SDS011;10230;51.502;10.800;2022-12-16T07:20:06;7.33;;;4.00;;
20138;SDS011;10230;51.502;10.800;2022-12-16T07:22:51;7.90;;;3.10;;
20138;SDS011;10230;51.502;10.800;2022-12-16T07:25:35;7.50;;;3.87;;
20138;SDS011;10230;51.502;10.800;2022-12-16T07:28:19;7.10;;;3.60;;
20138;SDS011;10230;51.502;10.800;2022-12-16T07:31:03;7.43;;;3.77;;
20138;SDS011;10230;51.502;10.800;2022-12-16T07:33:52;6.50;;;3.17;;
20138;SDS011;10230;51.502;10.800;2022-12-16T07:36:36;10.20;;;3.40;;
20138;SDS011;10230;51.502;10.800;2022-12-16T07:39:20;9.30;;;3.90;;
20138;SDS011;10230;51.502;10.800;2022-12-16T07:42:05;8.13;;;3.93;;
20138;SDS011;10230;51.502;10.800;2022-12-16T07:44:49;4.70;;;2.90;;
20138;SDS011;10230;51.502;10.800;2022-12-16T07:47:33;7.77;;;3.33;;
20138;SDS011;10230;51.502;10.800;2022-12-16T07:50:17;7.80;;;4.07;;
20138;SDS011;10230;51.502;10.800;2022-12-16T07:53:01;5.30;;;2.97;;
20138;SDS011;10230;51.502;10.800;2022-12-16T07:55:46;7.60;;;3.30;;
20138;SDS011;10230;51.502;10.800;2022-12-16T07:58:29;7.87;;;3.30;;
20138;SDS011;10230;51.502;10.800;2022-12-16T08:01:14;7.77;;;3.37;;
20138;SDS011;10230;51.502;10.800;2022-12-16T08:03:58;6.50;;;3.83;;
20138;SDS011;10230;51.502;10.800;2022-12-16T08:06:42;8.17;;;3.63;;
20138;SDS011;10230;51.502;10.800;2022-12-16T08:09:26;13.43;;;4.73;;
20138;SDS011;10230;51.502;10.800;2022-12-16T08:12:10;8.20;;;4.55;;
20138;SDS011;10230;51.502;10.800;2022-12-16T08:14:55;8.67;;;5.57;;
20138;SDS011;10230;51.502;10.800;2022-12-16T08:17:49;11.63;;;4.83;;
20138;SDS011;10230;51.502;10.800;2022-12-16T08:20:34;8.47;;;3.53;;
20138;SDS011;10230;51.502;10.800;2022-12-16T08:23:19;7.77;;;3.87;;
20138;SDS011;10230;51.502;10.800;2022-12-16T08:26:04;7.27;;;3.80;;
20138;SDS011;10230;51.502;10.800;2022-12-16T08:28:48;6.73;;;4.63;;
20138;SDS011;10230;51.502;10.800;2022-12-16T08:31:33;7.90;;;4.30;;
20138;SDS011;10230;51.502;10.800;2022-12-16T08:34:18;6.60;;;3.03;;
20138;SDS011;10230;51.502;10.800;2022-12-16T08:37:03;8.00;;;3.27;;
20138;SDS011;10230;51.502;10.800;2022-12-16T08:39:47;8.47;;;3.60;;
20138;SDS011;10230;51.502;10.800;2022-12-16T08:42:31;7.60;;;3.83;;
20138;SDS011;10230;51.502;10.800;2022-12-16T08:45:15;7.67;;;3.77;;
20138;SDS011;10230;51.502;10.800;2022-12-16T08:48:00;8.17;;;3.90;;
20138;SDS011;10230;51.502;10.800;2022-12-16T08:50:44;6.43;;;3.33;;
20138;SDS011;10230;51.502;10.800;2022-12-16T08:53:29;8.20;;;3.77;;
20138;SDS011;10230;51.502;10.800;2022-12-16T08:56:13;10.60;;;3.43;;
20138;SDS011;10230;51.502;10.800;2022-12-16T08:58:57;8.67;;;4.30;;
20138;SDS011;10230;51.502;10.800;2022-12-16T09:01:41;7.47;;;3.60;;
20138;SDS011;10230;51.502;10.800;2022-12-16T09:04:25;6.60;;;4.13;;
20138;SDS011;10230;51.502;10.800;2022-12-16T09:07:09;7.47;;;2.77;;
20138;SDS011;10230;51.502;10.800;2022-12-16T09:09:53;4.53;;;2.63;;
20138;SDS011;10230;51.502;10.800;2022-12-16T09:12:37;4.00;;;2.07;;
20138;SDS011;10230;51.502;10.800;2022-12-16T09:15:21;7.80;;;2.30;;
20138;SDS011;10230;51.502;10.800;2022-12-16T09:18:05;6.40;;;2.60;;
20138;SDS011;10230;51.502;10.800;2022-12-16T09:20:50;2.87;;;2.17;;
20138;SDS011;10230;51.502;10.800;2022-12-16T09:23:34;5.13;;;2.63;;
20138;SDS011;10230;51.502;10.800;2022-12-16T09:26:19;7.17;;;2.97;;
20138;SDS011;10230;51.502;10.800;2022-12-16T09:29:03;5.50;;;2.90;;
20138;SDS011;10230;51.502;10.800;2022-12-16T09:31:47;10.83;;;4.03;;
20138;SDS011;10230;51.502;10.800;2022-12-16T09:34:31;9.00;;;4.47;;
20138;SDS011;10230;51.502;10.800;2022-12-16T09:37:15;7.97;;;4.37;;
20138;SDS011;10230;51.502;10.800;2022-12-16T09:39:59;7.93;;;4.10;;
20138;SDS011;10230;51.502;10.800;2022-12-16T09:48:37;6.20;;;3.33;;
20138;SDS011;10230;51.502;10.800;2022-12-16T09:51:30;6.90;;;4.63;;
20138;SDS011;10230;51.502;10.800;2022-12-16T09:54:16;6.33;;;3.60;;
20138;SDS011;10230;51.502;10.800;2022-12-16T09:57:06;10.20;;;6.70;;
20138;SDS011;10230;51.502;10.800;2022-12-16T10:00:04;8.02;;;4.07;;
20138;SDS011;10230;51.502;10.800;2022-12-16T10:02:49;9.13;;;5.65;;
20138;SDS011;10230;51.502;10.800;2022-12-16T10:05:44;8.18;;;4.85;;
20138;SDS011;10230;51.502;10.800;2022-12-16T10:08:34;7.18;;;4.25;;
20138;SDS011;10230;51.502;10.800;2022-12-16T10:11:21;7.10;;;5.45;;
20138;SDS011;10230;51.502;10.800;2022-12-16T10:14:23;9.35;;;5.63;;
20138;SDS011;10230;51.502;10.800;2022-12-16T10:17:15;8.02;;;5.47;;
20138;SDS011;10230;51.502;10.800;2022-12-16T10:25:43;4.95;;;4.45;;
20138;SDS011;10230;51.502;10.800;2022-12-16T10:28:45;6.15;;;4.13;;
20138;SDS011;10230;51.502;10.800;2022-12-16T10:31:31;9.35;;;6.57;;
20138;SDS011;10230;51.502;10.800;2022-12-16T10:34:20;6.65;;;5.07;;
20138;SDS011;10230;51.502;10.800;2022-12-16T10:40:26;7.95;;;4.82;;
20138;SDS011;10230;51.502;10.800;2022-12-16T10:43:17;6.05;;;3.67;;
20138;SDS011;10230;51.502;10.800;2022-12-16T10:46:17;5.88;;;4.53;;
20138;SDS011;10230;51.502;10.800;2022-12-16T10:49:06;6.63;;;4.18;;
20138;SDS011;10230;51.502;10.800;2022-12-16T10:51:55;5.40;;;3.38;;
20138;SDS011;10230;51.502;10.800;2022-12-16T10:54:52;4.65;;;3.38;;
20138;SDS011;10230;51.502;10.800;2022-12-16T10:57:49;6.65;;;3.72;;
20138;SDS011;10230;51.502;10.800;2022-12-16T11:03:30;2.90;;;2.35;;
20138;SDS011;10230;51.502;10.800;2022-12-16T11:06:18;4.22;;;2.60;;
20138;SDS011;10230;51.502;10.800;2022-12-16T11:09:26;3.58;;;2.65;;
20138;SDS011;10230;51.502;10.800;2022-12-16T11:12:22;4.13;;;3.05;;
20138;SDS011;10230;51.502;10.800;2022-12-16T11:18:09;4.93;;;3.03;;
20138;SDS011;10230;51.502;10.800;2022-12-16T11:21:31;3.60;;;2.60;;
20138;SDS011;10230;51.502;10.800;2022-12-16T11:26:53;5.55;;;3.50;;
20138;SDS011;10230;51.502;10.800;2022-12-16T11:29:48;5.25;;;3.17;;
20138;SDS011;10230;51.502;10.800;2022-12-16T11:32:32;5.10;;;3.17;;
20138;SDS011;10230;51.502;10.800;2022-12-16T11:35:19;4.78;;;3.10;;
20138;SDS011;10230;51.502;10.800;2022-12-16T11:38:08;4.50;;;3.22;;
20138;SDS011;10230;51.502;10.800;2022-12-16T11:40:55;4.07;;;2.67;;
20138;SDS011;10230;51.502;10.800;2022-12-16T11:43:41;4.82;;;3.15;;
20138;SDS011;10230;51.502;10.800;2022-12-16T11:46:27;3.97;;;2.38;;
20138;SDS011;10230;51.502;10.800;2022-12-16T11:49:33;4.72;;;2.20;;
20138;SDS011;10230;51.502;10.800;2022-12-16T11:52:19;2.55;;;2.17;;
20138;SDS011;10230;51.502;10.800;2022-12-16T11:57:57;6.32;;;4.32;;
20138;SDS011;10230;51.502;10.800;2022-12-16T12:00:45;4.60;;;2.83;;
20138;SDS011;10230;51.502;10.800;2022-12-16T12:03:41;28.20;;;16.90;;
20138;SDS011;10230;51.502;10.800;2022-12-16T12:07:12;4.95;;;4.13;;
20138;SDS011;10230;51.502;10.800;2022-12-16T12:09:34;9.20;;;7.28;;
20138;SDS011;10230;51.502;10.800;2022-12-16T12:12:31;3.83;;;2.70;;
20138;SDS011;10230;51.502;10.800;2022-12-16T12:20:52;3.42;;;2.60;;
20138;SDS011;10230;51.502;10.800;2022-12-16T12:23:47;3.67;;;2.60;;
20138;SDS011;10230;51.502;10.800;2022-12-16T12:26:36;3.15;;;2.30;;
20138;SDS011;10230;51.502;10.800;2022-12-16T12:35:19;4.32;;;3.10;;
20138;SDS011;10230;51.502;10.800;2022-12-16T12:38:11;4.22;;;3.83;;
20138;SDS011;10230;51.502;10.800;2022-12-16T12:47:11;8.73;;;6.10;;
20138;SDS011;10230;51.502;10.800;2022-12-16T12:52:35;4.65;;;3.00;;
20138;SDS011;10230;51.502;10.800;2022-12-16T12:55:39;7.63;;;3.83;;
20138;SDS011;10230;51.502;10.800;2022-12-16T12:58:26;4.65;;;3.40;;
20138;SDS011;10230;51.502;10.800;2022-12-16T13:01:13;4.28;;;3.13;;
20138;SDS011;10230;51.502;10.800;2022-12-16T13:04:01;5.82;;;3.88;;
20138;SDS011;10230;51.502;10.800;2022-12-16T13:06:52;7.13;;;4.45;;
20138;SDS011;10230;51.502;10.800;2022-12-16T13:09:38;8.30;;;5.38;;
20138;SDS011;10230;51.502;10.800;2022-12-16T13:15:34;5.78;;;4.50;;
20138;SDS011;10230;51.502;10.800;2022-12-16T13:18:26;5.75;;;4.07;;
20138;SDS011;10230;51.502;10.800;2022-12-16T13:27:30;7.32;;;4.53;;
20138;SDS011;10230;51.502;10.800;2022-12-16T13:30:28;6.13;;;4.13;;
20138;SDS011;10230;51.502;10.800;2022-12-16T13:33:24;7.30;;;4.90;;
20138;SDS011;10230;51.502;10.800;2022-12-16T13:36:10;9.67;;;5.50;;
20138;SDS011;10230;51.502;10.800;2022-12-16T13:38:56;8.90;;;5.63;;
20138;SDS011;10230;51.502;10.800;2022-12-16T13:41:46;9.60;;;5.20;;
20138;SDS011;10230;51.502;10.800;2022-12-16T13:47:56;9.37;;;5.33;;
20138;SDS011;10230;51.502;10.800;2022-12-16T13:50:47;19.37;;;11.60;;
20138;SDS011;10230;51.502;10.800;2022-12-16T13:53:37;10.17;;;6.17;;
20138;SDS011;10230;51.502;10.800;2022-12-16T13:56:25;9.00;;;5.23;;
20138;SDS011;10230;51.502;10.800;2022-12-16T13:59:24;8.17;;;4.90;;
20138;SDS011;10230;51.502;10.800;2022-12-16T14:02:35;12.87;;;5.03;;
20138;SDS011;10230;51.502;10.800;2022-12-16T14:05:23;10.00;;;5.10;;
20138;SDS011;10230;51.502;10.800;2022-12-16T14:08:14;9.50;;;4.60;;
20138;SDS011;10230;51.502;10.800;2022-12-16T14:11:04;7.70;;;4.17;;
20138;SDS011;10230;51.502;10.800;2022-12-16T14:16:56;11.40;;;5.77;;
20138;SDS011;10230;51.502;10.800;2022-12-16T14:25:32;8.03;;;3.97;;
20138;SDS011;10230;51.502;10.800;2022-12-16T14:28:26;8.67;;;4.23;;
20138;SDS011;10230;51.502;10.800;2022-12-16T14:34:18;18.40;;;9.13;;
20138;SDS011;10230;51.502;10.800;2022-12-16T14:37:18;9.00;;;5.20;;
20138;SDS011;10230;51.502;10.800;2022-12-16T14:40:16;8.87;;;4.33;;
20138;SDS011;10230;51.502;10.800;2022-12-16T14:43:13;8.13;;;4.53;;
20138;SDS011;10230;51.502;10.800;2022-12-16T14:46:02;8.10;;;3.97;;
20138;SDS011;10230;51.502;10.800;2022-12-16T14:48:47;7.00;;;4.03;;
20138;SDS011;10230;51.502;10.800;2022-12-16T14:51:33;13.40;;;7.83;;
20138;SDS011;10230;51.502;10.800;2022-12-16T14:57:22;8.60;;;4.13;;
20138;SDS011;10230;51.502;10.800;2022-12-16T15:03:19;10.53;;;5.33;;
20138;SDS011;10230;51.502;10.800;2022-12-16T15:06:02;9.77;;;4.67;;
20138;SDS011;10230;51.502;10.800;2022-12-16T15:08:57;8.23;;;4.90;;
20138;SDS011;10230;51.502;10.800;2022-12-16T15:11:45;14.60;;;7.53;;
20138;SDS011;10230;51.502;10.800;2022-12-16T15:14:33;11.60;;;5.50;;
20138;SDS011;10230;51.502;10.800;2022-12-16T15:17:21;8.73;;;4.27;;
20138;SDS011;10230;51.502;10.800;2022-12-16T15:20:16;7.70;;;4.17;;
20138;SDS011;10230;51.502;10.800;2022-12-16T15:23:03;12.70;;;6.23;;
20138;SDS011;10230;51.502;10.800;2022-12-16T15:26:00;7.97;;;3.27;;
20138;SDS011;10230;51.502;10.800;2022-12-16T15:28:44;8.13;;;4.90;;
20138;SDS011;10230;51.502;10.800;2022-12-16T15:31:32;11.67;;;5.17;;
20138;SDS011;10230;51.502;10.800;2022-12-16T15:34:23;11.87;;;5.23;;
20138;SDS011;10230;51.502;10.800;2022-12-16T15:37:14;9.17;;;5.20;;
20138;SDS011;10230;51.502;10.800;2022-12-16T15:39:58;9.60;;;4.80;;
20138;SDS011;10230;51.502;10.800;2022-12-16T15:42:43;9.63;;;4.93;;
20138;SDS011;10230;51.502;10.800;2022-12-16T15:45:32;10.33;;;4.57;;
20138;SDS011;10230;51.502;10.800;2022-12-16T15:51:01;9.60;;;5.47;;
20138;SDS011;10230;51.502;10.800;2022-12-16T15:53:45;11.80;;;7.20;;
20138;SDS011;10230;51.502;10.800;2022-12-16T15:56:33;9.13;;;5.37;;
20138;SDS011;10230;51.502;10.800;2022-12-16T15:59:32;6.77;;;4.13;;
20138;SDS011;10230;51.502;10.800;2022-12-16T16:05:13;8.87;;;4.60;;
20138;SDS011;10230;51.502;10.800;2022-12-16T16:08:00;8.60;;;4.47;;
20138;SDS011;10230;51.502;10.800;2022-12-16T16:10:44;13.20;;;5.10;;
20138;SDS011;10230;51.502;10.800;2022-12-16T16:13:28;10.47;;;5.33;;
20138;SDS011;10230;51.502;10.800;2022-12-16T16:16:12;11.87;;;6.53;;
20138;SDS011;10230;51.502;10.800;2022-12-16T16:18:58;9.67;;;4.87;;
20138;SDS011;10230;51.502;10.800;2022-12-16T16:21:43;9.40;;;5.53;;
20138;SDS011;10230;51.502;10.800;2022-12-16T16:24:27;10.27;;;5.87;;
20138;SDS011;10230;51.502;10.800;2022-12-16T16:27:13;11.37;;;5.53;;
20138;SDS011;10230;51.502;10.800;2022-12-16T16:29:58;15.70;;;5.17;;
20138;SDS011;10230;51.502;10.800;2022-12-16T16:32:43;18.67;;;7.77;;
20138;SDS011;10230;51.502;10.800;2022-12-16T16:35:27;17.03;;;7.93;;
20138;SDS011;10230;51.502;10.800;2022-12-16T16:38:13;17.57;;;9.83;;
20138;SDS011;10230;51.502;10.800;2022-12-16T16:40:57;16.50;;;7.87;;
20138;SDS011;10230;51.502;10.800;2022-12-16T16:43:41;14.67;;;8.80;;
20138;SDS011;10230;51.502;10.800;2022-12-16T16:46:36;14.83;;;7.87;;
20138;SDS011;10230;51.502;10.800;2022-12-16T16:49:23;14.43;;;6.60;;
20138;SDS011;10230;51.502;10.800;2022-12-16T16:52:14;18.40;;;8.00;;
20138;SDS011;10230;51.502;10.800;2022-12-16T16:55:00;15.60;;;8.93;;
20138;SDS011;10230;51.502;10.800;2022-12-16T16:57:45;22.20;;;11.10;;
20138;SDS011;10230;51.502;10.800;2022-12-16T17:00:29;13.80;;;6.97;;
20138;SDS011;10230;51.502;10.800;2022-12-16T17:03:13;12.30;;;7.17;;
20138;SDS011;10230;51.502;10.800;2022-12-16T17:05:58;17.10;;;9.60;;
20138;SDS011;10230;51.502;10.800;2022-12-16T17:08:42;12.20;;;6.50;;
20138;SDS011;10230;51.502;10.800;2022-12-16T17:11:26;16.43;;;8.63;;
20138;SDS011;10230;51.502;10.800;2022-12-16T17:14:12;10.67;;;6.67;;
20138;SDS011;10230;51.502;10.800;2022-12-16T17:16:59;12.83;;;6.67;;
20138;SDS011;10230;51.502;10.800;2022-12-16T17:19:43;16.70;;;7.70;;
20138;SDS011;10230;51.502;10.800;2022-12-16T17:22:28;13.90;;;6.77;;
20138;SDS011;10230;51.502;10.800;2022-12-16T17:25:12;20.10;;;8.43;;
20138;SDS011;10230;51.502;10.800;2022-12-16T17:27:57;18.90;;;9.30;;
20138;SDS011;10230;51.502;10.800;2022-12-16T17:30:42;14.73;;;7.20;;
20138;SDS011;10230;51.502;10.800;2022-12-16T17:33:26;17.73;;;7.87;;
20138;SDS011;10230;51.502;10.800;2022-12-16T17:36:11;12.93;;;6.27;;
20138;SDS011;10230;51.502;10.800;2022-12-16T17:38:56;11.93;;;6.17;;
20138;SDS011;10230;51.502;10.800;2022-12-16T17:41:40;14.83;;;8.70;;
20138;SDS011;10230;51.502;10.800;2022-12-16T17:44:24;13.20;;;8.20;;
20138;SDS011;10230;51.502;10.800;2022-12-16T17:47:09;17.70;;;8.80;;
20138;SDS011;10230;51.502;10.800;2022-12-16T17:49:53;15.20;;;8.47;;
20138;SDS011;10230;51.502;10.800;2022-12-16T17:52:37;17.33;;;8.57;;
20138;SDS011;10230;51.502;10.800;2022-12-16T17:55:21;11.57;;;6.17;;
20138;SDS011;10230;51.502;10.800;2022-12-16T17:58:05;12.30;;;7.53;;
20138;SDS011;10230;51.502;10.800;2022-12-16T18:00:49;15.60;;;9.50;;
20138;SDS011;10230;51.502;10.800;2022-12-16T18:03:33;15.53;;;6.40;;